sensor_id;sensor_type;location;lat;lon;timestamp;pressure;altitude;pressure_sealevel;temperature;humidity
27210;BME280;14721;42.668;23.386;2024-01-30T00:01:45;97241.47;;;-0.17;71.71
27210;BME280;14721;42.668;23.386;2024-01-30T00:04:29;97242.34;;;-0.18;71.59
27210;BME280;14721;42.668;23.386;2024-01-30T00:14:35;97221.31;;;-0.13;70.03
27210;BME280;14721;42.668;23.386;2024-01-30T00:20:23;97286.06;;;0.01;71.15
27210;BME280;14721;42.668;23.386;2024-01-30T00:26:01;97276.47;;;-0.06;72.42
27210;BME280;14721;42.668;23.386;2024-01-30T00:28:40;97310.63;;;-0.06;72.22
27210;BME280;14721;42.668;23.386;2024-01-30T00:31:26;97213.53;;;-0.70;72.12
27210;BME280;14721;42.668;23.386;2024-01-30T01:01:44;97261.69;;;-0.92;76.53
27210;BME280;14721;42.668;23.386;2024-01-30T01:04:18;97316.81;;;-0.55;76.48
27210;BME280;14721;42.668;23.386;2024-01-30T01:07:00;97268.66;;;-0.84;76.66
27210;BME280;14721;42.668;23.386;2024-01-30T01:09:36;97272.19;;;-0.67;76.80
27210;BME280;14721;42.668;23.386;2024-01-30T01:12:09;97314.19;;;-0.35;76.60
27210;BME280;14721;42.668;23.386;2024-01-30T01:14:51;97206.56;;;-1.03;75.99
27210;BME280;14721;42.668;23.386;2024-01-30T01:17:41;97285.31;;;-0.79;75.64
27210;BME280;14721;42.668;23.386;2024-01-30T01:20:08;97313.28;;;-0.48;75.84
27210;BME280;14721;42.668;23.386;2024-01-30T01:22:34;97319.44;;;-0.52;76.56
27210;BME280;14721;42.668;23.386;2024-01-30T01:25:02;97259.03;;;-1.06;76.71
27210;BME280;14721;42.668;23.386;2024-01-30T01:27:43;97230.16;;;-1.27;76.59
27210;BME280;14721;42.668;23.386;2024-01-30T01:30:29;97311.56;;;-0.73;76.52
27210;BME280;14721;42.668;23.386;2024-01-30T01:32:58;97287.03;;;-0.78;76.36
27210;BME280;14721;42.668;23.386;2024-01-30T01:35:27;97280.94;;;-0.81;75.70
27210;BME280;14721;42.668;23.386;2024-01-30T01:37:53;97255.53;;;-1.14;75.63
27210;BME280;14721;42.668;23.386;2024-01-30T01:40:33;97315.06;;;-0.74;76.17
27210;BME280;14721;42.668;23.386;2024-01-30T01:43:09;97315.91;;;-0.84;77.12
27210;BME280;14721;42.668;23.386;2024-01-30T01:45:35;97259.03;;;-1.03;76.62
27210;BME280;14721;42.668;23.386;2024-01-30T01:48:00;97233.66;;;-1.23;76.82
27210;BME280;14721;42.668;23.386;2024-01-30T01:50:26;97322.94;;;-0.68;76.13
27210;BME280;14721;42.668;23.386;2024-01-30T01:55:54;97245.03;;;-1.06;75.83
27210;BME280;14721;42.668;23.386;2024-01-30T01:58:21;97296.69;;;-0.78;74.93
27210;BME280;14721;42.668;23.386;2024-01-30T02:00:47;97284.41;;;-0.87;76.08
27210;BME280;14721;42.668;23.386;2024-01-30T02:03:13;97330.81;;;-0.45;75.38
27210;BME280;14721;42.668;23.386;2024-01-30T02:05:44;97245.94;;;-0.79;74.21
27210;BME280;14721;42.668;23.386;2024-01-30T02:08:10;97292.28;;;-0.39;74.22
27210;BME280;14721;42.668;23.386;2024-01-30T02:10:39;97287.03;;;-0.60;74.20
27210;BME280;14721;42.668;23.386;2024-01-30T02:13:07;97329.06;;;-0.39;74.18
27210;BME280;14721;42.668;23.386;2024-01-30T02:15:32;97294.06;;;-0.75;74.20
27210;BME280;14721;42.668;23.386;2024-01-30T02:18:01;97283.56;;;-0.72;75.33
27210;BME280;14721;42.668;23.386;2024-01-30T02:20:30;97315.91;;;-0.48;75.17
27210;BME280;14721;42.668;23.386;2024-01-30T02:22:58;97264.31;;;-0.89;74.88
27210;BME280;14721;42.668;23.386;2024-01-30T02:25:36;97270.44;;;-0.80;75.19
27210;BME280;14721;42.668;23.386;2024-01-30T02:28:04;97283.56;;;-0.72;75.21
27210;BME280;14721;42.668;23.386;2024-01-30T02:30:34;97280.94;;;-0.74;74.91
27210;BME280;14721;42.668;23.386;2024-01-30T02:33:00;97318.53;;;-0.55;74.35
27210;BME280;14721;42.668;23.386;2024-01-30T02:35:28;97291.44;;;-0.87;75.28
27210;BME280;14721;42.668;23.386;2024-01-30T02:38:04;97292.28;;;-0.76;75.60
27210;BME280;14721;42.668;23.386;2024-01-30T02:40:37;97309.81;;;-0.74;75.30
27210;BME280;14721;42.668;23.386;2024-01-30T02:43:05;97316.81;;;-0.65;76.27
27210;BME280;14721;42.668;23.386;2024-01-30T02:45:30;97287.94;;;-0.73;76.37
27210;BME280;14721;42.668;23.386;2024-01-30T02:47:58;97275.69;;;-0.77;76.25
27210;BME280;14721;42.668;23.386;2024-01-30T02:50:24;97297.53;;;-0.55;75.95
27210;BME280;14721;42.668;23.386;2024-01-30T02:53:08;97273.06;;;-0.56;75.89
27210;BME280;14721;42.668;23.386;2024-01-30T02:55:51;97302.75;;;-0.18;74.59
27210;BME280;14721;42.668;23.386;2024-01-30T02:58:17;97290.53;;;-0.40;74.37
27210;BME280;14721;42.668;23.386;2024-01-30T03:00:42;97272.16;;;-0.52;74.57
27210;BME280;14721;42.668;23.386;2024-01-30T03:03:08;97318.53;;;-0.31;75.29
27210;BME280;14721;42.668;23.386;2024-01-30T03:05:36;97270.44;;;-0.68;75.46
27210;BME280;14721;42.668;23.386;2024-01-30T03:08:01;97252.06;;;-0.86;74.99
27210;BME280;14721;42.668;23.386;2024-01-30T03:10:49;97297.53;;;-0.69;75.28
27210;BME280;14721;42.668;23.386;2024-01-30T03:13:14;97308.94;;;-0.64;73.47
27210;BME280;14721;42.668;23.386;2024-01-30T03:15:42;97308.03;;;-0.58;73.05
27210;BME280;14721;42.668;23.386;2024-01-30T03:18:07;97308.94;;;-0.52;71.38
27210;BME280;14721;42.668;23.386;2024-01-30T03:20:57;97309.81;;;-0.50;72.82
27210;BME280;14721;42.668;23.386;2024-01-30T03:23:25;97299.31;;;-0.62;72.56
27210;BME280;14721;42.668;23.386;2024-01-30T03:26:14;97248.56;;;-0.73;73.75
27210;BME280;14721;42.668;23.386;2024-01-30T03:28:40;97283.56;;;-0.53;73.93
27210;BME280;14721;42.668;23.386;2024-01-30T03:31:06;97259.94;;;-0.75;73.17
27210;BME280;14721;42.668;23.386;2024-01-30T03:33:32;97236.31;;;-0.81;72.17
27210;BME280;14721;42.668;23.386;2024-01-30T03:42:49;97297.53;;;-0.48;71.03
27210;BME280;14721;42.668;23.386;2024-01-30T03:48:37;97266.91;;;-0.37;72.01
27210;BME280;14721;42.668;23.386;2024-01-30T03:51:03;97274.72;;;-0.05;70.51
27210;BME280;14721;42.668;23.386;2024-01-30T03:53:28;97267.75;;;-0.18;69.65
27210;BME280;14721;42.668;23.386;2024-01-30T03:55:54;97249.41;;;-0.30;67.29
27210;BME280;14721;42.668;23.386;2024-01-30T03:58:30;97272.13;;;-0.20;70.88
27210;BME280;14721;42.668;23.386;2024-01-30T04:00:56;97279.13;;;-0.21;70.59
27210;BME280;14721;42.668;23.386;2024-01-30T04:03:21;97289.66;;;-0.30;72.00
27210;BME280;14721;42.668;23.386;2024-01-30T04:05:47;97250.28;;;-0.64;70.47
27210;BME280;14721;42.668;23.386;2024-01-30T04:08:12;97270.44;;;-0.62;69.14
27210;BME280;14721;42.668;23.386;2024-01-30T04:10:38;97287.94;;;-0.49;68.88
27210;BME280;14721;42.668;23.386;2024-01-30T04:13:03;97271.25;;;-0.34;68.96
27210;BME280;14721;42.668;23.386;2024-01-30T04:18:24;97272.19;;;-0.71;70.40
27210;BME280;14721;42.668;23.386;2024-01-30T04:20:54;97287.03;;;-0.42;72.84
27210;BME280;14721;42.668;23.386;2024-01-30T04:23:26;97198.69;;;-0.97;73.61
27210;BME280;14721;42.668;23.386;2024-01-30T04:25:59;97300.16;;;-0.49;73.98
27210;BME280;14721;42.668;23.386;2024-01-30T04:28:24;97284.41;;;-0.69;74.29
27210;BME280;14721;42.668;23.386;2024-01-30T04:30:52;97259.94;;;-0.83;74.38
27210;BME280;14721;42.668;23.386;2024-01-30T04:33:21;97265.19;;;-0.99;73.90
27210;BME280;14721;42.668;23.386;2024-01-30T04:39:12;97288.81;;;-0.80;73.52
27210;BME280;14721;42.668;23.386;2024-01-30T04:41:38;97276.53;;;-0.78;74.24
27210;BME280;14721;42.668;23.386;2024-01-30T04:44:03;97276.53;;;-0.84;74.97
27210;BME280;14721;42.668;23.386;2024-01-30T04:56:36;97285.22;;;-1.33;74.42
27210;BME280;14721;42.668;23.386;2024-01-30T04:59:02;97314.09;;;-1.19;74.29
27210;BME280;14721;42.668;23.386;2024-01-30T05:01:28;97293.13;;;-1.16;75.32
27210;BME280;14721;42.668;23.386;2024-01-30T05:03:53;97257.25;;;-1.31;75.88
27210;BME280;14721;42.668;23.386;2024-01-30T05:06:30;97234.47;;;-1.50;75.31
27210;BME280;14721;42.668;23.386;2024-01-30T05:09:22;97274.75;;;-1.21;74.96
27210;BME280;14721;42.668;23.386;2024-01-30T05:11:58;97301.88;;;-1.14;74.41
27210;BME280;14721;42.668;23.386;2024-01-30T05:14:26;97313.25;;;-1.02;74.06
27210;BME280;14721;42.668;23.386;2024-01-30T05:17:11;97282.56;;;-1.42;74.58
27210;BME280;14721;42.668;23.386;2024-01-30T05:19:41;97339.38;;;-1.36;75.16
27210;BME280;14721;42.668;23.386;2024-01-30T05:22:16;97315.78;;;-1.41;75.18
27210;BME280;14721;42.668;23.386;2024-01-30T05:24:47;97331.59;;;-1.09;74.22
27210;BME280;14721;42.668;23.386;2024-01-30T05:30:18;97325.53;;;-1.01;74.44
27210;BME280;14721;42.668;23.386;2024-01-30T05:32:44;97297.53;;;-0.91;74.17
27210;BME280;14721;42.668;23.386;2024-01-30T05:35:10;97318.53;;;-0.66;73.32
27210;BME280;14721;42.668;23.386;2024-01-30T05:37:36;97326.38;;;-0.96;72.41
27210;BME280;14721;42.668;23.386;2024-01-30T05:40:02;97299.22;;;-1.29;72.00
27210;BME280;14721;42.668;23.386;2024-01-30T05:42:48;97276.41;;;-1.50;72.49
27210;BME280;14721;42.668;23.386;2024-01-30T05:45:13;97244.97;;;-1.50;72.92
27210;BME280;14721;42.668;23.386;2024-01-30T05:47:39;97267.72;;;-1.41;73.15
27210;BME280;14721;42.668;23.386;2024-01-30T05:50:07;97323.66;;;-1.35;73.66
27210;BME280;14721;42.668;23.386;2024-01-30T05:52:33;97309.59;;;-1.59;73.57
27210;BME280;14721;42.668;23.386;2024-01-30T05:54:58;97317.56;;;-1.31;73.91
27210;BME280;14721;42.668;23.386;2024-01-30T05:57:27;97271.19;;;-1.48;72.91
27210;BME280;14721;42.668;23.386;2024-01-30T06:00:12;97300.97;;;-1.31;73.01
27210;BME280;14721;42.668;23.386;2024-01-30T06:02:38;97263.28;;;-1.62;73.52
27210;BME280;14721;42.668;23.386;2024-01-30T06:05:24;97335.94;;;-1.29;74.21
27210;BME280;14721;42.668;23.386;2024-01-30T06:07:52;97321.91;;;-1.36;73.89
27210;BME280;14721;42.668;23.386;2024-01-30T06:10:18;97269.44;;;-1.49;74.56
27210;BME280;14721;42.668;23.386;2024-01-30T06:12:49;97342.13;;;-0.91;73.84
27210;BME280;14721;42.668;23.386;2024-01-30T06:15:22;97329.03;;;-0.70;73.17
27210;BME280;14721;42.668;23.386;2024-01-30T06:17:48;97337.81;;;-0.47;73.69
27210;BME280;14721;42.668;23.386;2024-01-30T06:20:14;97305.41;;;-0.31;73.06
27210;BME280;14721;42.668;23.386;2024-01-30T06:22:40;97334.25;;;0.13;72.56
27210;BME280;14721;42.668;23.386;2024-01-30T06:25:09;97278.25;;;-0.18;71.89
27210;BME280;14721;42.668;23.386;2024-01-30T06:27:44;97332.44;;;0.33;71.79
27210;BME280;14721;42.668;23.386;2024-01-30T06:30:13;97290.47;;;0.09;70.51
27210;BME280;14721;42.668;23.386;2024-01-30T06:32:49;97344.75;;;0.17;70.31
27210;BME280;14721;42.668;23.386;2024-01-30T06:35:36;97340.34;;;0.30;70.11
27210;BME280;14721;42.668;23.386;2024-01-30T06:38:22;97337.34;;;1.11;69.56
27210;BME280;14721;42.668;23.386;2024-01-30T06:40:59;97333.72;;;2.30;68.24
27210;BME280;14721;42.668;23.386;2024-01-30T06:43:26;97319.22;;;3.30;63.60
27210;BME280;14721;42.668;23.386;2024-01-30T06:45:51;97314.59;;;4.01;60.75
27210;BME280;14721;42.668;23.386;2024-01-30T06:48:19;97327.41;;;4.67;58.73
27210;BME280;14721;42.668;23.386;2024-01-30T06:50:45;97289.91;;;4.88;57.80
27210;BME280;14721;42.668;23.386;2024-01-30T06:53:11;97324.03;;;5.79;55.87
27210;BME280;14721;42.668;23.386;2024-01-30T06:55:36;97286.84;;;6.18;54.16
27210;BME280;14721;42.668;23.386;2024-01-30T06:58:02;97322.53;;;6.72;52.42
27210;BME280;14721;42.668;23.386;2024-01-30T07:00:28;97327.78;;;6.41;50.12
27210;BME280;14721;42.668;23.386;2024-01-30T07:02:53;97323.28;;;6.45;47.79
27210;BME280;14721;42.668;23.386;2024-01-30T07:05:19;97337.03;;;6.27;47.51
27210;BME280;14721;42.668;23.386;2024-01-30T07:07:46;97340.66;;;5.49;48.42
27210;BME280;14721;42.668;23.386;2024-01-30T07:10:11;97287.06;;;4.56;49.19
27210;BME280;14721;42.668;23.386;2024-01-30T07:12:37;97315.53;;;4.88;49.10
27210;BME280;14721;42.668;23.386;2024-01-30T07:15:03;97333.50;;;5.53;48.88
27210;BME280;14721;42.668;23.386;2024-01-30T07:17:29;97333.81;;;5.77;47.58
27210;BME280;14721;42.668;23.386;2024-01-30T07:19:54;97328.84;;;6.01;46.44
27210;BME280;14721;42.668;23.386;2024-01-30T07:22:20;97322.22;;;6.50;46.01
27210;BME280;14721;42.668;23.386;2024-01-30T07:24:45;97348.50;;;6.93;44.70
27210;BME280;14721;42.668;23.386;2024-01-30T07:27:14;97319.41;;;7.19;44.23
27210;BME280;14721;42.668;23.386;2024-01-30T07:29:39;97289.78;;;7.58;43.11
27210;BME280;14721;42.668;23.386;2024-01-30T07:32:05;97306.88;;;8.33;42.29
27210;BME280;14721;42.668;23.386;2024-01-30T07:34:31;97308.13;;;8.72;41.70
27210;BME280;14721;42.668;23.386;2024-01-30T07:36:56;97307.81;;;8.81;40.55
27210;BME280;14721;42.668;23.386;2024-01-30T07:39:25;97308.56;;;8.60;40.58
27210;BME280;14721;42.668;23.386;2024-01-30T07:41:53;97264.28;;;8.31;40.87
27210;BME280;14721;42.668;23.386;2024-01-30T07:44:21;97313.41;;;8.21;40.33
27210;BME280;14721;42.668;23.386;2024-01-30T07:46:49;97305.88;;;8.08;40.78
27210;BME280;14721;42.668;23.386;2024-01-30T07:49:15;97300.19;;;7.66;41.54
27210;BME280;14721;42.668;23.386;2024-01-30T07:51:40;97303.47;;;8.00;41.13
27210;BME280;14721;42.668;23.386;2024-01-30T07:54:06;97307.66;;;8.35;40.15
27210;BME280;14721;42.668;23.386;2024-01-30T07:56:31;97296.56;;;8.47;39.80
27210;BME280;14721;42.668;23.386;2024-01-30T07:58:57;97305.41;;;7.97;38.86
27210;BME280;14721;42.668;23.386;2024-01-30T08:01:23;97318.31;;;8.35;39.34
27210;BME280;14721;42.668;23.386;2024-01-30T08:03:48;97308.69;;;8.57;39.87
27210;BME280;14721;42.668;23.386;2024-01-30T08:06:21;97294.91;;;8.44;39.07
27210;BME280;14721;42.668;23.386;2024-01-30T08:08:47;97285.91;;;8.47;38.45
27210;BME280;14721;42.668;23.386;2024-01-30T08:11:12;97301.22;;;8.42;38.65
27210;BME280;14721;42.668;23.386;2024-01-30T08:13:52;97307.06;;;7.99;39.55
27210;BME280;14721;42.668;23.386;2024-01-30T08:16:22;97279.28;;;7.54;40.38
27210;BME280;14721;42.668;23.386;2024-01-30T08:18:58;97312.81;;;7.01;41.13
27210;BME280;14721;42.668;23.386;2024-01-30T08:21:24;97310.81;;;6.15;42.37
27210;BME280;14721;42.668;23.386;2024-01-30T08:27:06;97283.16;;;4.74;45.74
27210;BME280;14721;42.668;23.386;2024-01-30T08:29:35;97293.22;;;4.57;45.53
27210;BME280;14721;42.668;23.386;2024-01-30T08:32:01;97312.66;;;4.56;46.78
27210;BME280;14721;42.668;23.386;2024-01-30T08:34:26;97268.19;;;3.81;46.36
27210;BME280;14721;42.668;23.386;2024-01-30T08:37:12;97281.84;;;3.54;47.27
27210;BME280;14721;42.668;23.386;2024-01-30T08:39:44;97257.06;;;3.07;48.22
27210;BME280;14721;42.668;23.386;2024-01-30T08:42:21;97325.16;;;3.46;48.62
27210;BME280;14721;42.668;23.386;2024-01-30T08:45:02;97328.75;;;3.43;48.67
27210;BME280;14721;42.668;23.386;2024-01-30T08:47:36;97330.81;;;3.20;49.29
27210;BME280;14721;42.668;23.386;2024-01-30T08:50:01;97273.72;;;3.12;49.84
27210;BME280;14721;42.668;23.386;2024-01-30T08:52:29;97290.94;;;3.38;49.15
27210;BME280;14721;42.668;23.386;2024-01-30T08:54:55;97303.91;;;3.53;48.78
27210;BME280;14721;42.668;23.386;2024-01-30T09:00:41;97292.78;;;3.32;48.43
27210;BME280;14721;42.668;23.386;2024-01-30T09:03:18;97312.03;;;3.41;48.29
27210;BME280;14721;42.668;23.386;2024-01-30T09:09:14;97279.94;;;3.06;48.97
27210;BME280;14721;42.668;23.386;2024-01-30T09:11:55;97329.13;;;3.16;48.63
27210;BME280;14721;42.668;23.386;2024-01-30T09:14:39;97336.41;;;2.99;49.25
27210;BME280;14721;42.668;23.386;2024-01-30T09:22:52;97284.19;;;2.54;50.26
27210;BME280;14721;42.668;23.386;2024-01-30T09:25:42;97258.03;;;2.36;50.74
27210;BME280;14721;42.668;23.386;2024-01-30T09:28:34;97308.88;;;2.50;51.18
27210;BME280;14721;42.668;23.386;2024-01-30T09:31:13;97214.28;;;2.20;50.93
27210;BME280;14721;42.668;23.386;2024-01-30T09:33:50;97234.75;;;2.68;51.34
27210;BME280;14721;42.668;23.386;2024-01-30T09:36:29;97291.22;;;3.19;50.74
27210;BME280;14721;42.668;23.386;2024-01-30T09:39:07;97218.47;;;2.98;49.57
27210;BME280;14721;42.668;23.386;2024-01-30T09:47:58;97318.91;;;3.50;51.28
27210;BME280;14721;42.668;23.386;2024-01-30T09:50:29;97324.25;;;3.47;51.71
27210;BME280;14721;42.668;23.386;2024-01-30T09:53:17;97248.44;;;2.94;51.56
27210;BME280;14721;42.668;23.386;2024-01-30T09:55:46;97228.47;;;2.77;51.82
27210;BME280;14721;42.668;23.386;2024-01-30T09:58:22;97305.06;;;3.36;52.07
27210;BME280;14721;42.668;23.386;2024-01-30T10:00:58;97292.03;;;3.25;51.55
27210;BME280;14721;42.668;23.386;2024-01-30T10:03:23;97286.78;;;3.22;51.44
27210;BME280;14721;42.668;23.386;2024-01-30T10:05:52;97313.13;;;3.27;51.44
27210;BME280;14721;42.668;23.386;2024-01-30T10:08:18;97301.00;;;3.11;52.36
27210;BME280;14721;42.668;23.386;2024-01-30T10:10:47;97309.78;;;3.14;52.44
27210;BME280;14721;42.668;23.386;2024-01-30T10:13:12;97287.00;;;3.07;52.87
27210;BME280;14721;42.668;23.386;2024-01-30T10:15:38;97299.88;;;3.30;52.50
27210;BME280;14721;42.668;23.386;2024-01-30T10:18:04;97294.22;;;3.54;52.26
27210;BME280;14721;42.668;23.386;2024-01-30T10:20:34;97245.72;;;3.56;51.81
27210;BME280;14721;42.668;23.386;2024-01-30T10:23:00;97212.25;;;3.55;51.16
27210;BME280;14721;42.668;23.386;2024-01-30T10:25:25;97300.41;;;4.03;50.40
27210;BME280;14721;42.668;23.386;2024-01-30T10:27:54;97300.81;;;3.80;51.00
27210;BME280;14721;42.668;23.386;2024-01-30T10:30:23;97267.69;;;3.60;51.09
27210;BME280;14721;42.668;23.386;2024-01-30T10:32:59;97297.63;;;3.60;51.00
27210;BME280;14721;42.668;23.386;2024-01-30T10:35:27;97286.03;;;3.69;50.73
27210;BME280;14721;42.668;23.386;2024-01-30T10:37:54;97301.06;;;3.65;50.90
27210;BME280;14721;42.668;23.386;2024-01-30T10:40:27;97259.38;;;3.29;51.70
27210;BME280;14721;42.668;23.386;2024-01-30T10:42:54;97282.84;;;3.49;51.57
27210;BME280;14721;42.668;23.386;2024-01-30T10:45:21;97247.75;;;3.39;51.41
27210;BME280;14721;42.668;23.386;2024-01-30T10:47:53;97252.75;;;3.56;51.31
27210;BME280;14721;42.668;23.386;2024-01-30T10:50:33;97243.13;;;3.52;50.96
27210;BME280;14721;42.668;23.386;2024-01-30T10:53:01;97263.97;;;3.70;50.80
27210;BME280;14721;42.668;23.386;2024-01-30T10:55:28;97250.53;;;3.82;50.68
27210;BME280;14721;42.668;23.386;2024-01-30T10:57:54;97254.06;;;3.82;50.06
27210;BME280;14721;42.668;23.386;2024-01-30T11:00:20;97249.31;;;3.52;51.11
27210;BME280;14721;42.668;23.386;2024-01-30T11:02:52;97269.84;;;3.88;50.58
27210;BME280;14721;42.668;23.386;2024-01-30T11:05:24;97268.00;;;3.90;49.88
27210;BME280;14721;42.668;23.386;2024-01-30T11:07:52;97211.28;;;3.06;51.15
27210;BME280;14721;42.668;23.386;2024-01-30T11:10:18;97244.44;;;3.27;51.98
27210;BME280;14721;42.668;23.386;2024-01-30T11:12:46;97265.31;;;3.43;52.13
27210;BME280;14721;42.668;23.386;2024-01-30T11:15:21;97221.72;;;3.14;52.44
27210;BME280;14721;42.668;23.386;2024-01-30T11:17:56;97254.88;;;3.34;52.11
27210;BME280;14721;42.668;23.386;2024-01-30T11:20:26;97235.69;;;3.22;51.98
27210;BME280;14721;42.668;23.386;2024-01-30T11:22:53;97261.06;;;3.33;52.59
27210;BME280;14721;42.668;23.386;2024-01-30T11:25:20;97255.97;;;3.20;52.96
27210;BME280;14721;42.668;23.386;2024-01-30T11:27:49;97248.06;;;3.18;52.90
27210;BME280;14721;42.668;23.386;2024-01-30T11:30:41;97258.44;;;3.32;52.58
27210;BME280;14721;42.668;23.386;2024-01-30T11:33:34;97244.44;;;3.27;52.45
27210;BME280;14721;42.668;23.386;2024-01-30T11:36:01;97249.22;;;3.57;51.55
27210;BME280;14721;42.668;23.386;2024-01-30T11:38:32;97203.63;;;3.44;51.26
27210;BME280;14721;42.668;23.386;2024-01-30T11:41:00;97190.59;;;3.34;51.41
27210;BME280;14721;42.668;23.386;2024-01-30T11:43:26;97255.41;;;3.56;52.17
27210;BME280;14721;42.668;23.386;2024-01-30T11:45:51;97239.59;;;3.53;52.28
27210;BME280;14721;42.668;23.386;2024-01-30T11:48:46;97251.94;;;3.54;51.59
27210;BME280;14721;42.668;23.386;2024-01-30T11:51:13;97214.16;;;3.46;51.90
27210;BME280;14721;42.668;23.386;2024-01-30T11:53:39;97225.41;;;3.58;52.33
27210;BME280;14721;42.668;23.386;2024-01-30T11:56:06;97227.97;;;3.64;51.67
27210;BME280;14721;42.668;23.386;2024-01-30T11:58:32;97242.84;;;3.68;51.94
27210;BME280;14721;42.668;23.386;2024-01-30T12:01:00;97173.06;;;3.30;51.83
27210;BME280;14721;42.668;23.386;2024-01-30T12:03:26;97224.63;;;3.53;52.25
27210;BME280;14721;42.668;23.386;2024-01-30T12:05:57;97184.78;;;3.12;52.59
27210;BME280;14721;42.668;23.386;2024-01-30T12:08:23;97210.16;;;3.22;52.71
27210;BME280;14721;42.668;23.386;2024-01-30T12:10:59;97197.94;;;3.15;52.86
27210;BME280;14721;42.668;23.386;2024-01-30T12:13:26;97214.88;;;3.02;53.33
27210;BME280;14721;42.668;23.386;2024-01-30T12:15:53;97196.53;;;2.93;53.18
27210;BME280;14721;42.668;23.386;2024-01-30T12:18:19;97200.47;;;3.21;53.02
27210;BME280;14721;42.668;23.386;2024-01-30T12:20:57;97205.47;;;3.39;52.76
27210;BME280;14721;42.668;23.386;2024-01-30T12:23:34;97206.88;;;3.08;53.11
27210;BME280;14721;42.668;23.386;2024-01-30T12:26:01;97173.75;;;2.88;53.62
27210;BME280;14721;42.668;23.386;2024-01-30T12:28:27;97158.06;;;2.77;53.77
27210;BME280;14721;42.668;23.386;2024-01-30T12:31:09;97152.03;;;2.68;53.48
27210;BME280;14721;42.668;23.386;2024-01-30T12:33:36;97132.81;;;2.58;53.90
27210;BME280;14721;42.668;23.386;2024-01-30T12:36:09;97184.16;;;2.98;53.71
27210;BME280;14721;42.668;23.386;2024-01-30T12:38:58;97086.28;;;2.54;53.61
27210;BME280;14721;42.668;23.386;2024-01-30T12:41:35;97135.97;;;2.83;52.95
27210;BME280;14721;42.668;23.386;2024-01-30T12:44:23;97100.53;;;2.44;53.36
27210;BME280;14721;42.668;23.386;2024-01-30T12:47:09;97118.91;;;2.50;53.70
27210;BME280;14721;42.668;23.386;2024-01-30T12:50:08;97177.03;;;3.02;53.58
27210;BME280;14721;42.668;23.386;2024-01-30T12:52:38;97155.91;;;3.02;53.37
27210;BME280;14721;42.668;23.386;2024-01-30T12:55:04;97170.50;;;3.25;53.03
27210;BME280;14721;42.668;23.386;2024-01-30T12:57:30;97151.03;;;3.29;52.32
27210;BME280;14721;42.668;23.386;2024-01-30T12:59:55;97114.47;;;3.07;52.68
27210;BME280;14721;42.668;23.386;2024-01-30T13:02:24;97168.47;;;3.39;51.98
27210;BME280;14721;42.668;23.386;2024-01-30T13:05:00;97141.34;;;3.31;52.53
27210;BME280;14721;42.668;23.386;2024-01-30T13:07:25;97127.47;;;3.17;52.51
27210;BME280;14721;42.668;23.386;2024-01-30T13:09:54;97156.22;;;3.35;52.96
27210;BME280;14721;42.668;23.386;2024-01-30T13:12:22;97160.53;;;3.39;53.03
27210;BME280;14721;42.668;23.386;2024-01-30T13:14:52;97101.28;;;3.05;52.76
27210;BME280;14721;42.668;23.386;2024-01-30T13:20:49;97065.53;;;2.86;52.80
27210;BME280;14721;42.668;23.386;2024-01-30T13:23:17;97153.28;;;3.52;52.74
27210;BME280;14721;42.668;23.386;2024-01-30T13:25:46;97054.41;;;2.68;53.77
27210;BME280;14721;42.668;23.386;2024-01-30T13:28:32;97144.28;;;3.13;54.48
27210;BME280;14721;42.668;23.386;2024-01-30T13:31:07;97101.72;;;2.80;54.94
27210;BME280;14721;42.668;23.386;2024-01-30T13:33:42;97126.19;;;2.91;55.29
27210;BME280;14721;42.668;23.386;2024-01-30T13:36:34;97142.72;;;3.00;55.70
27210;BME280;14721;42.668;23.386;2024-01-30T13:39:21;97080.19;;;2.52;55.52
27210;BME280;14721;42.668;23.386;2024-01-30T13:41:59;97134.16;;;2.86;56.18
27210;BME280;14721;42.668;23.386;2024-01-30T13:44:41;97157.75;;;2.98;55.81
27210;BME280;14721;42.668;23.386;2024-01-30T13:47:47;97108.34;;;2.50;56.03
27210;BME280;14721;42.668;23.386;2024-01-30T13:50:37;97166.00;;;2.77;56.43
27210;BME280;14721;42.668;23.386;2024-01-30T13:53:47;97168.56;;;2.82;57.39
27210;BME280;14721;42.668;23.386;2024-01-30T14:14:43;97137.38;;;2.49;57.64
27210;BME280;14721;42.668;23.386;2024-01-30T14:17:36;97087.75;;;2.16;57.42
27210;BME280;14721;42.668;23.386;2024-01-30T14:20:09;97063.22;;;2.09;57.72
27210;BME280;14721;42.668;23.386;2024-01-30T14:22:57;97130.41;;;2.45;57.62
27210;BME280;14721;42.668;23.386;2024-01-30T14:26:17;97154.81;;;2.60;57.54
27210;BME280;14721;42.668;23.386;2024-01-30T14:35:43;97156.09;;;2.32;58.16
27210;BME280;14721;42.668;23.386;2024-01-30T14:38:08;97166.69;;;2.29;58.69
27210;BME280;14721;42.668;23.386;2024-01-30T14:40:35;97141.88;;;2.41;58.51
27210;BME280;14721;42.668;23.386;2024-01-30T14:43:00;97151.56;;;2.43;57.83
27210;BME280;14721;42.668;23.386;2024-01-30T14:45:26;97151.53;;;2.45;57.57
27210;BME280;14721;42.668;23.386;2024-01-30T14:47:51;97126.28;;;2.24;57.76
27210;BME280;14721;42.668;23.386;2024-01-30T14:50:18;97149.84;;;2.38;58.45
27210;BME280;14721;42.668;23.386;2024-01-30T14:52:43;97150.06;;;2.23;58.45
27210;BME280;14721;42.668;23.386;2024-01-30T14:55:10;97162.31;;;2.28;58.25
27210;BME280;14721;42.668;23.386;2024-01-30T14:57:35;97156.16;;;2.28;58.67
27210;BME280;14721;42.668;23.386;2024-01-30T15:00:03;97142.31;;;2.09;58.65
27210;BME280;14721;42.668;23.386;2024-01-30T15:02:30;97126.69;;;1.94;58.73
27210;BME280;14721;42.668;23.386;2024-01-30T15:04:55;97153.94;;;1.94;59.35
27210;BME280;14721;42.668;23.386;2024-01-30T15:07:23;97111.34;;;1.56;59.38
27210;BME280;14721;42.668;23.386;2024-01-30T15:10:13;97146.16;;;1.82;60.00
27210;BME280;14721;42.668;23.386;2024-01-30T15:12:38;97167.25;;;1.84;60.33
27210;BME280;14721;42.668;23.386;2024-01-30T15:15:07;97169.06;;;1.77;60.37
27210;BME280;14721;42.668;23.386;2024-01-30T15:17:34;97167.41;;;1.70;60.59
27210;BME280;14721;42.668;23.386;2024-01-30T15:19:59;97163.09;;;1.63;60.94
27210;BME280;14721;42.668;23.386;2024-01-30T15:22:34;97168.41;;;1.59;61.35